createdAt,value
2018-02-07T18:19:01.127Z,4.03
2018-02-07T18:21:28.596Z,4.43
2018-02-07T18:23:56.049Z,4.65
2018-02-07T18:26:23.510Z,4.37
2018-02-07T18:28:50.975Z,4.97
2018-02-07T18:31:18.432Z,5.18
2018-02-07T18:33:45.913Z,5.00
2018-02-07T18:36:13.381Z,6.50
2018-02-07T18:38:40.865Z,9.65
2018-02-07T18:41:08.313Z,9.32
2018-02-07T18:43:35.785Z,6.40
2018-02-07T18:46:03.247Z,6.22
2018-02-07T18:48:30.717Z,5.68
2018-02-07T18:50:58.179Z,4.95
2018-02-07T18:53:25.630Z,4.55
2018-02-07T18:55:53.093Z,4.43
2018-02-07T18:58:20.576Z,4.50
2018-02-07T19:00:48.050Z,4.87
2018-02-07T19:03:15.543Z,4.85
2018-02-07T19:05:42.989Z,4.65
2018-02-07T19:08:10.476Z,5.07
2018-02-07T19:10:37.938Z,5.18
2018-02-07T19:13:05.414Z,5.57
2018-02-07T19:15:32.886Z,4.75
2018-02-07T19:18:00.367Z,5.55
2018-02-07T19:20:27.835Z,5.32
2018-02-07T19:22:56.074Z,5.57
2018-02-07T19:25:24.316Z,4.90
2018-02-07T19:27:51.789Z,3.70
2018-02-07T19:30:19.263Z,5.40
2018-02-07T19:32:46.749Z,4.87
2018-02-07T19:35:14.216Z,5.10
2018-02-07T19:37:42.467Z,4.95
2018-02-07T19:40:09.939Z,4.85
2018-02-07T19:42:37.421Z,5.15
2018-02-07T19:45:05.645Z,5.37
2018-02-07T19:47:33.125Z,5.35
2018-02-07T19:50:00.600Z,5.18
2018-02-07T19:52:28.859Z,5.18
2018-02-07T19:54:56.327Z,5.10
2018-02-07T19:57:24.577Z,4.85
2018-02-07T19:59:52.051Z,5.22
2018-02-07T20:02:19.582Z,4.80
2018-02-07T20:04:47.004Z,4.90
2018-02-07T20:07:14.497Z,6.32
2018-02-07T20:09:41.973Z,7.20
2018-02-07T20:12:09.443Z,6.50
2018-02-07T20:14:36.912Z,6.12
2018-02-07T20:17:05.186Z,6.20
2018-02-07T20:19:33.423Z,6.62
2018-02-07T20:22:00.897Z,6.12
2018-02-07T20:24:28.416Z,6.45
2018-02-07T20:26:55.874Z,5.15
2018-02-07T20:29:23.322Z,6.10
2018-02-07T20:31:50.798Z,5.65
2018-02-07T20:34:18.279Z,5.37
2018-02-07T20:36:45.740Z,5.35
2018-02-07T20:39:13.206Z,5.22
2018-02-07T20:41:40.678Z,6.85
2018-02-07T20:44:08.152Z,6.45
2018-02-07T20:46:36.392Z,6.15
2018-02-07T20:49:03.879Z,6.30
2018-02-07T20:51:31.349Z,6.78
2018-02-07T20:53:59.586Z,6.45
2018-02-07T20:56:27.061Z,5.75
2018-02-07T20:58:54.525Z,6.28
2018-02-07T21:01:21.997Z,6.45
2018-02-07T21:03:50.233Z,5.78
2018-02-07T21:06:17.713Z,6.62
2018-02-07T21:08:45.190Z,7.47
2018-02-07T21:11:13.435Z,7.25
2018-02-07T21:13:40.907Z,7.10
2018-02-07T21:16:08.365Z,7.68
2018-02-07T21:18:35.838Z,7.35
2018-02-07T21:21:04.078Z,6.07
2018-02-07T21:23:31.565Z,5.47
2018-02-07T21:25:59.036Z,6.68
2018-02-07T21:28:26.521Z,6.87
2018-02-07T21:30:53.997Z,6.95
2018-02-07T21:33:21.464Z,5.55
2018-02-07T21:35:48.979Z,5.97
2018-02-07T21:38:16.455Z,5.50
2018-02-07T21:40:43.929Z,6.47
2018-02-07T21:43:11.405Z,5.75
2018-02-07T21:45:38.872Z,6.43
2018-02-07T21:48:06.399Z,6.75
2018-02-07T21:50:33.870Z,5.80
2018-02-07T21:53:01.354Z,6.50
2018-02-07T21:55:28.862Z,6.15
2018-02-07T21:57:58.260Z,6.15
2018-02-07T22:00:25.736Z,6.35
2018-02-07T22:02:53.290Z,5.65
2018-02-07T22:05:20.756Z,5.55
2018-02-07T22:07:48.223Z,5.75
2018-02-07T22:10:15.708Z,5.95
2018-02-07T22:12:43.343Z,5.78
2018-02-07T22:15:10.908Z,5.62
2018-02-07T22:17:38.370Z,5.37
2018-02-07T22:20:05.856Z,6.20
2018-02-07T22:22:34.102Z,6.20
2018-02-07T22:25:01.575Z,5.43
2018-02-07T22:27:29.048Z,5.68
2018-02-07T22:29:56.518Z,5.97
2018-02-07T22:32:24.755Z,6.05
2018-02-07T22:34:52.238Z,6.65
2018-02-07T22:37:19.700Z,5.47
2018-02-07T22:39:47.178Z,6.15
2018-02-07T22:42:14.648Z,6.50
2018-02-07T22:44:42.142Z,4.85
2018-02-07T22:47:09.615Z,5.20
2018-02-07T22:49:37.085Z,4.53
2018-02-07T22:52:04.544Z,4.07
2018-02-07T22:54:32.014Z,6.62
2018-02-07T22:57:00.238Z,4.70
2018-02-07T22:59:27.713Z,5.47
2018-02-07T23:01:55.189Z,5.05
2018-02-07T23:04:22.675Z,5.30
2018-02-07T23:06:50.910Z,5.28
2018-02-07T23:09:18.398Z,5.47
2018-02-07T23:11:46.612Z,5.97
2018-02-07T23:14:14.066Z,5.85
2018-02-07T23:16:41.554Z,5.60
2018-02-07T23:19:09.009Z,5.55
2018-02-07T23:21:36.622Z,4.97
2018-02-07T23:24:04.093Z,4.40
2018-02-07T23:26:31.646Z,5.28
2018-02-07T23:28:59.136Z,5.10
2018-02-07T23:31:26.599Z,5.22
2018-02-07T23:33:54.069Z,5.70
2018-02-07T23:36:21.548Z,5.95
2018-02-07T23:38:49.033Z,4.35
2018-02-07T23:41:16.498Z,4.57
2018-02-07T23:43:43.974Z,5.97
2018-02-07T23:46:12.228Z,5.87
2018-02-07T23:48:39.690Z,4.62
2018-02-07T23:51:07.174Z,5.65
2018-02-07T23:53:34.636Z,4.75
2018-02-07T23:56:02.107Z,5.35
2018-02-07T23:58:29.560Z,5.28
